Time;durP1;ratioP1;P1;durP2;ratioP2;P2;SDS_P1;SDS_P2;PMS_P1;PMS_P2;Temp;Humidity;BMP_temperature;BMP_pressure;BME280_temperature;BME280_humidity;BME280_pressure;Samples;Min_cycle;Max_cycle;Signal;HPM_P1;HPM_P2
2022/11/03 00:01:50;;;;;;;4.63;3.10;;;;;;;17.93;nan;-24316.38;5031388;28;20218;-72
2022/11/03 00:04:17;;;;;;;3.40;2.25;;;;;;;17.98;nan;-24317.91;5024393;28;20188;-74
2022/11/03 00:06:45;;;;;;;3.50;2.03;;;;;;;18.16;nan;-24322.81;5021297;28;20271;-72
2022/11/03 00:09:12;;;;;;;5.13;1.80;;;;;;;18.03;nan;-24319.19;5022970;28;20294;-72
2022/11/03 00:11:39;;;;;;;7.25;2.10;;;;;;;18.02;nan;-24318.91;5025481;28;20184;-73
2022/11/03 00:14:06;;;;;;;3.15;2.67;;;;;;;17.98;nan;-24317.78;5021310;28;20196;-71
2022/11/03 00:16:32;;;;;;;4.50;1.85;;;;;;;18.14;nan;-24322.25;5027672;28;20275;-71
2022/11/03 00:18:57;;;;;;;9.27;1.83;;;;;;;18.49;nan;-24332.00;5020408;28;20271;-72
2022/11/03 00:21:24;;;;;;;3.30;1.90;;;;;;;18.50;nan;-24332.28;5024669;28;20280;-71
2022/11/03 00:23:49;;;;;;;2.35;1.60;;;;;;;18.31;nan;-24326.84;5027105;28;20191;-73
2022/11/03 00:26:17;;;;;;;4.70;2.15;;;;;;;18.23;nan;-24324.75;5021837;28;21140;-73
2022/11/03 00:28:45;;;;;;;5.72;1.90;;;;;;;17.90;nan;-24315.69;5026487;28;20203;-73
2022/11/03 00:31:32;;;;;;;2.58;2.00;;;;;;;18.15;nan;-24322.53;5018553;28;20179;-73
2022/11/03 00:33:59;;;;;;;2.50;1.92;;;;;;;18.07;nan;-24320.44;5025195;28;20183;-74
2022/11/03 00:36:37;;;;;;;2.90;1.88;;;;;;;17.68;nan;-24309.56;5017331;28;20188;-73
2022/11/03 00:39:03;;;;;;;2.63;1.67;;;;;;;16.65;nan;-24281.06;5029955;28;20193;-73
2022/11/03 00:41:29;;;;;;;4.28;2.17;;;;;;;17.41;nan;-24302.00;5021126;28;20183;-72
2022/11/03 00:43:54;;;;;;;4.55;1.98;;;;;;;17.72;nan;-24310.53;5023594;28;20252;-72
2022/11/03 00:46:21;;;;;;;2.67;1.70;;;;;;;17.73;nan;-24310.94;5023738;28;20346;-72
2022/11/03 00:48:47;;;;;;;3.08;2.17;;;;;;;17.58;nan;-24306.75;5023837;28;20187;-71
2022/11/03 00:51:29;;;;;;;2.42;1.65;;;;;;;17.60;nan;-24307.47;5016831;28;20183;-72
2022/11/03 00:53:57;;;;;;;5.13;2.28;;;;;;;17.32;nan;-24299.63;5022745;28;20564;-72
2022/11/03 00:56:25;;;;;;;3.90;2.30;;;;;;;17.47;nan;-24303.81;5022446;28;20241;-71
2022/11/03 00:58:52;;;;;;;2.88;1.80;;;;;;;17.64;nan;-24308.56;5026330;28;20176;-72
2022/11/03 01:01:30;;;;;;;2.33;1.83;;;;;;;17.51;nan;-24304.94;5024832;28;20198;-71
2022/11/03 01:06:50;;;;;;;7.63;1.70;;;;;;;17.34;nan;-24300.06;5018440;28;20210;-71
2022/11/03 01:09:25;;;;;;;2.60;1.85;;;;;;;17.58;nan;-24306.91;5020441;28;20263;-71
2022/11/03 01:12:01;;;;;;;5.72;1.95;;;;;;;17.64;nan;-24308.56;5023323;28;20183;-71
2022/11/03 01:14:31;;;;;;;5.15;2.13;;;;;;;17.32;nan;-24299.63;5025115;28;20212;-71
2022/11/03 01:16:56;;;;;;;6.70;2.15;;;;;;;17.34;nan;-24300.19;5018216;28;20180;-71
2022/11/03 01:19:24;;;;;;;4.40;1.83;;;;;;;17.74;nan;-24311.09;5017403;28;20191;-71
2022/11/03 01:21:50;;;;;;;3.47;2.13;;;;;;;17.48;nan;-24304.09;5017585;28;20592;-72
2022/11/03 01:24:15;;;;;;;2.60;1.85;;;;;;;17.26;nan;-24297.97;5024126;28;20652;-71
2022/11/03 01:26:41;;;;;;;3.85;1.88;;;;;;;17.54;nan;-24305.63;5023505;28;20255;-72
2022/11/03 01:29:06;;;;;;;2.17;1.77;;;;;;;17.61;nan;-24307.75;5018688;28;20187;-71
2022/11/03 01:31:31;;;;;;;2.75;1.95;;;;;;;17.63;nan;-24308.16;5021399;28;20183;-71
2022/11/03 01:33:57;;;;;;;4.43;2.20;;;;;;;17.40;nan;-24301.72;5023078;28;20233;-71
2022/11/03 01:36:23;;;;;;;5.47;1.88;;;;;;;17.33;nan;-24299.91;5015414;28;20196;-71
2022/11/03 01:38:48;;;;;;;2.22;1.65;;;;;;;17.47;nan;-24303.81;5021611;28;20540;-71
2022/11/03 01:41:27;;;;;;;4.93;2.03;;;;;;;17.19;nan;-24296.16;5017238;28;20560;-72
2022/11/03 01:44:07;;;;;;;3.53;1.90;;;;;;;17.47;nan;-24303.81;5019351;28;20581;-72
2022/11/03 01:46:47;;;;;;;2.42;1.70;;;;;;;17.37;nan;-24300.91;5019941;28;20187;-72
2022/11/03 01:49:24;;;;;;;2.25;1.67;;;;;;;17.00;nan;-24290.84;5014898;28;20183;-72
2022/11/03 01:51:56;;;;;;;4.22;2.35;;;;;;;17.08;nan;-24292.94;5020292;28;20195;-71
2022/11/03 01:54:25;;;;;;;2.15;1.30;;;;;;;17.55;nan;-24305.91;5024479;28;20214;-71
2022/11/03 01:56:51;;;;;;;6.68;1.85;;;;;;;17.35;nan;-24300.47;5027557;28;20270;-71
2022/11/03 01:59:19;;;;;;;1.80;1.60;;;;;;;17.37;nan;-24301.03;5019435;28;20271;-71
2022/11/03 02:01:44;;;;;;;2.70;1.77;;;;;;;17.37;nan;-24301.03;5024500;28;20238;-71
2022/11/03 02:04:17;;;;;;;2.78;1.88;;;;;;;17.17;nan;-24295.59;5019076;28;20561;-72
2022/11/03 02:06:42;;;;;;;2.15;1.65;;;;;;;17.57;nan;-24306.63;5023242;28;20188;-72
2022/11/03 02:09:10;;;;;;;4.78;2.00;;;;;;;17.39;nan;-24301.44;5028456;28;20171;-72
2022/11/03 02:14:21;;;;;;;5.20;2.15;;;;;;;17.58;nan;-24306.91;5022683;28;20218;-71
2022/11/03 02:16:53;;;;;;;3.58;1.83;;;;;;;17.56;nan;-24306.19;5019602;28;20186;-71
2022/11/03 02:19:26;;;;;;;5.50;2.45;;;;;;;17.77;nan;-24312.06;5022729;28;20187;-72
2022/11/03 02:22:13;;;;;;;3.22;1.88;;;;;;;17.67;nan;-24309.41;5022040;28;20273;-72
2022/11/03 02:24:59;;;;;;;3.75;1.65;;;;;;;17.74;nan;-24311.09;5017540;28;20233;-72
2022/11/03 02:27:25;;;;;;;2.92;1.77;;;;;;;17.64;nan;-24308.56;5023419;28;20195;-71
2022/11/03 02:29:50;;;;;;;3.35;1.73;;;;;;;17.72;nan;-24310.66;5020452;28;20226;-71
2022/11/03 02:32:27;;;;;;;3.55;1.98;;;;;;;17.42;nan;-24302.44;5021978;28;20638;-71
2022/11/03 02:35:14;;;;;;;1.95;1.60;;;;;;;17.43;nan;-24302.72;5016786;28;20698;-71
2022/11/03 02:37:44;;;;;;;3.53;1.90;;;;;;;17.68;nan;-24309.56;5021379;28;20189;-71
2022/11/03 02:40:17;;;;;;;3.22;1.48;;;;;;;18.03;nan;-24319.19;5023648;28;20614;-72
2022/11/03 02:42:47;;;;;;;3.78;1.70;;;;;;;18.01;nan;-24318.63;5040519;28;20210;-72
2022/11/03 02:45:16;;;;;;;2.83;2.05;;;;;;;18.02;nan;-24319.03;5019988;28;20241;-72
2022/11/03 02:47:42;;;;;;;2.88;1.75;;;;;;;18.08;nan;-24320.56;5024177;28;20275;-73
2022/11/03 02:50:09;;;;;;;3.20;2.00;;;;;;;18.36;nan;-24328.38;5018928;28;20267;-72
2022/11/03 02:52:39;;;;;;;3.65;1.80;;;;;;;18.30;nan;-24326.56;5028326;28;20179;-71
2022/11/03 02:55:19;;;;;;;2.20;1.65;;;;;;;18.22;nan;-24324.34;5029265;28;20223;-71
2022/11/03 02:58:11;;;;;;;4.25;2.20;;;;;;;18.24;nan;-24324.88;5024021;28;20179;-71
2022/11/03 03:00:55;;;;;;;2.70;1.60;;;;;;;17.93;nan;-24316.38;5023677;28;20305;-71
2022/11/03 03:03:48;;;;;;;2.10;1.63;;;;;;;18.18;nan;-24323.34;5029009;28;20172;-72
2022/11/03 03:06:25;;;;;;;2.10;1.55;;;;;;;17.88;nan;-24315.13;5019473;28;20273;-72
2022/11/03 03:08:59;;;;;;;2.83;2.00;;;;;;;17.78;nan;-24312.34;5018575;28;20229;-72
2022/11/03 03:11:37;;;;;;;5.10;2.15;;;;;;;17.98;nan;-24317.78;5020174;28;20286;-72
2022/11/03 03:14:14;;;;;;;4.47;1.77;;;;;;;18.03;nan;-24319.19;5024675;28;20183;-72
2022/11/03 03:17:03;;;;;;;3.65;1.63;;;;;;;18.07;nan;-24320.28;5014645;28;20323;-71
2022/11/03 03:20:02;;;;;;;4.75;2.17;;;;;;;18.18;nan;-24323.34;5020918;28;20222;-72
2022/11/03 03:22:50;;;;;;;4.97;1.77;;;;;;;17.85;nan;-24314.16;5017872;28;20538;-72
2022/11/03 03:25:28;;;;;;;4.70;2.10;;;;;;;18.10;nan;-24321.13;5020476;28;20313;-72
2022/11/03 03:28:00;;;;;;;2.55;1.88;;;;;;;17.94;nan;-24316.66;5025961;28;20183;-72
2022/11/03 03:30:28;;;;;;;3.58;2.00;;;;;;;17.94;nan;-24316.66;5013307;28;20202;-72
2022/11/03 03:32:55;;;;;;;3.85;1.70;;;;;;;17.99;nan;-24318.19;5012264;28;20276;-72
2022/11/03 03:35:29;;;;;;;7.55;1.92;;;;;;;17.97;nan;-24317.63;5021472;28;20207;-72
2022/11/03 03:38:00;;;;;;;4.95;2.20;;;;;;;17.83;nan;-24313.59;5021191;28;20179;-72
2022/11/03 03:40:30;;;;;;;3.55;1.70;;;;;;;17.92;nan;-24316.25;5016818;28;20179;-72
2022/11/03 03:42:56;;;;;;;3.22;1.88;;;;;;;17.63;nan;-24308.28;5024396;28;20183;-71
2022/11/03 03:45:25;;;;;;;6.43;1.67;;;;;;;17.78;nan;-24312.19;5026268;28;20188;-72
2022/11/03 03:47:50;;;;;;;2.63;1.58;;;;;;;18.01;nan;-24318.75;5025732;28;20198;-72
2022/11/03 03:50:16;;;;;;;3.63;1.98;;;;;;;17.88;nan;-24315.00;5022693;28;20570;-71
2022/11/03 03:52:42;;;;;;;4.40;1.75;;;;;;;17.87;nan;-24314.72;5031763;28;20699;-72
2022/11/03 03:55:17;;;;;;;2.72;1.83;;;;;;;17.97;nan;-24317.50;5024709;28;20205;-72
2022/11/03 03:57:43;;;;;;;3.67;1.70;;;;;;;17.89;nan;-24315.41;5022819;28;20179;-73
2022/11/03 04:00:13;;;;;;;2.67;1.75;;;;;;;17.83;nan;-24313.75;5018306;28;20203;-72
2022/11/03 04:02:38;;;;;;;1.77;1.48;;;;;;;17.95;nan;-24316.94;5026162;28;20180;-72
2022/11/03 04:05:04;;;;;;;4.22;1.60;;;;;;;17.60;nan;-24307.47;5022931;28;20187;-73
2022/11/03 04:07:48;;;;;;;4.20;1.80;;;;;;;17.86;nan;-24314.44;5027799;28;20213;-73
2022/11/03 04:10:19;;;;;;;2.00;1.60;;;;;;;17.76;nan;-24311.63;5017541;28;20222;-73
2022/11/03 04:23:36;;;;;;;3.35;1.75;;;;;;;17.51;nan;-24304.81;5034815;28;20704;-72
2022/11/03 04:26:05;;;;;;;2.22;1.63;;;;;;;18.04;nan;-24319.59;5034250;28;20365;-71
2022/11/03 04:28:31;;;;;;;5.57;1.77;;;;;;;17.92;nan;-24316.25;5034247;28;20179;-71
2022/11/03 04:30:58;;;;;;;2.58;1.65;;;;;;;17.99;nan;-24318.19;5033940;28;20163;-72
2022/11/03 04:33:23;;;;;;;2.38;1.85;;;;;;;17.66;nan;-24309.13;5033988;28;20187;-72
2022/11/03 04:35:49;;;;;;;3.42;1.92;;;;;;;17.90;nan;-24315.69;5033080;28;20203;-72
2022/11/03 04:38:14;;;;;;;5.72;1.98;;;;;;;17.88;nan;-24315.00;5021827;28;20191;-72
2022/11/03 04:40:58;;;;;;;3.28;1.60;;;;;;;17.73;nan;-24310.81;5022626;28;20184;-72
2022/11/03 04:43:32;;;;;;;2.30;1.70;;;;;;;17.42;nan;-24302.44;5021683;28;20183;-71
2022/11/03 04:45:57;;;;;;;5.70;1.90;;;;;;;17.42;nan;-24302.28;5016701;28;20183;-71
2022/11/03 04:48:24;;;;;;;2.75;1.88;;;;;;;17.33;nan;-24299.78;5033417;28;20175;-73
2022/11/03 04:50:53;;;;;;;2.72;1.73;;;;;;;17.60;nan;-24307.31;5026144;28;20180;-74
2022/11/03 04:53:20;;;;;;;2.88;1.90;;;;;;;17.56;nan;-24306.34;5012399;28;20179;-73
2022/11/03 04:55:48;;;;;;;2.55;1.73;;;;;;;17.20;nan;-24296.44;5013149;28;20592;-73
2022/11/03 04:58:20;;;;;;;2.58;1.90;;;;;;;17.38;nan;-24301.31;5013595;28;20176;-72
2022/11/03 05:00:51;;;;;;;3.65;2.13;;;;;;;17.23;nan;-24297.28;5013472;28;20187;-72
2022/11/03 05:03:22;;;;;;;4.65;1.80;;;;;;;17.59;nan;-24307.03;5013458;28;20359;-72
2022/11/03 05:05:48;;;;;;;2.83;1.70;;;;;;;17.69;nan;-24309.69;5012920;28;20616;-73
2022/11/03 05:08:16;;;;;;;5.03;1.90;;;;;;;17.79;nan;-24312.63;5023864;28;20175;-75
2022/11/03 05:10:42;;;;;;;5.88;2.42;;;;;;;17.68;nan;-24309.56;5027548;28;20282;-73
2022/11/03 05:13:28;;;;;;;2.08;1.73;;;;;;;18.02;nan;-24318.91;5023894;28;20283;-73
2022/11/03 05:16:02;;;;;;;4.88;1.95;;;;;;;18.02;nan;-24319.03;5021600;28;20325;-73
2022/11/03 05:18:31;;;;;;;2.30;1.60;;;;;;;18.03;nan;-24319.31;5016372;28;20238;-75
2022/11/03 05:21:01;;;;;;;3.20;1.58;;;;;;;18.02;nan;-24318.91;5032438;28;20186;-73
2022/11/03 05:23:30;;;;;;;2.75;1.92;;;;;;;18.03;nan;-24319.19;5026655;28;20184;-73
2022/11/03 05:25:58;;;;;;;4.32;1.70;;;;;;;17.84;nan;-24314.00;5013028;28;20247;-71
2022/11/03 05:28:34;;;;;;;5.45;1.98;;;;;;;17.86;nan;-24314.44;5012356;28;20168;-72
2022/11/03 05:31:01;;;;;;;3.30;1.60;;;;;;;17.57;nan;-24306.63;5013187;28;20168;-72
2022/11/03 05:33:35;;;;;;;2.30;1.60;;;;;;;17.93;nan;-24316.38;5012437;28;20176;-73
2022/11/03 05:36:15;;;;;;;3.50;1.80;;;;;;;17.85;nan;-24314.28;5012685;28;20199;-76
2022/11/03 05:38:41;;;;;;;2.70;2.10;;;;;;;17.95;nan;-24316.94;5013596;28;20176;-73
2022/11/03 05:41:22;;;;;;;3.17;1.95;;;;;;;17.95;nan;-24316.94;5013144;28;20172;-74
2022/11/03 05:44:01;;;;;;;3.30;1.95;;;;;;;17.86;nan;-24314.44;5013518;28;20529;-71
2022/11/03 05:46:30;;;;;;;4.85;1.83;;;;;;;18.18;nan;-24323.22;5012941;28;20598;-72
2022/11/03 05:48:59;;;;;;;3.15;1.83;;;;;;;18.21;nan;-24324.06;5012840;28;20176;-73
2022/11/03 05:51:31;;;;;;;4.00;2.58;;;;;;;18.19;nan;-24323.50;5011383;28;20533;-73
2022/11/03 05:54:00;;;;;;;2.72;1.63;;;;;;;17.92;nan;-24316.25;5011120;28;20172;-71
2022/11/03 05:56:26;;;;;;;2.90;1.73;;;;;;;18.58;nan;-24334.38;5012776;28;20195;-72
2022/11/03 05:58:55;;;;;;;2.45;1.70;;;;;;;18.57;nan;-24333.94;5012438;28;20620;-72
2022/11/03 06:01:30;;;;;;;4.18;1.95;;;;;;;18.86;nan;-24342.16;5012689;28;20242;-72
2022/11/03 06:03:58;;;;;;;2.70;2.13;;;;;;;18.86;nan;-24342.03;5012217;28;20175;-69
2022/11/03 06:06:32;;;;;;;2.30;1.65;;;;;;;18.92;nan;-24343.69;5011126;28;20227;-72
2022/11/03 06:09:00;;;;;;;1.70;1.60;;;;;;;19.09;nan;-24348.44;5012144;28;20259;-72
2022/11/03 06:11:30;;;;;;;2.33;1.50;;;;;;;18.89;nan;-24342.84;5011796;28;20171;-71
2022/11/03 06:13:56;;;;;;;5.57;2.45;;;;;;;19.07;nan;-24347.88;5025978;28;20647;-72
2022/11/03 06:16:34;;;;;;;2.72;1.70;;;;;;;19.12;nan;-24349.25;5019796;28;20249;-71
2022/11/03 06:19:11;;;;;;;5.30;1.77;;;;;;;19.25;nan;-24352.88;5015950;28;20223;-71
2022/11/03 06:21:36;;;;;;;4.07;2.00;;;;;;;19.37;nan;-24356.06;5023445;28;20220;-71
2022/11/03 06:24:02;;;;;;;6.43;1.92;;;;;;;19.44;nan;-24357.88;5031765;28;20258;-71
2022/11/03 06:26:27;;;;;;;3.53;1.88;;;;;;;19.34;nan;-24355.38;5031898;28;20638;-71
2022/11/03 06:28:54;;;;;;;7.72;1.88;;;;;;;19.41;nan;-24357.34;5031715;28;20183;-71
2022/11/03 06:31:26;;;;;;;2.63;1.88;;;;;;;19.67;nan;-24364.44;5031891;28;20666;-72
2022/11/03 06:33:52;;;;;;;2.13;1.63;;;;;;;19.50;nan;-24359.56;5029118;28;20274;-73
2022/11/03 06:36:21;;;;;;;3.83;2.53;;;;;;;19.68;nan;-24364.56;5019187;28;20259;-72
2022/11/03 06:38:51;;;;;;;3.78;1.75;;;;;;;19.80;nan;-24368.03;5021345;28;20655;-72
2022/11/03 06:41:31;;;;;;;1.85;1.65;;;;;;;19.99;nan;-24373.19;5014882;28;20279;-72
2022/11/03 06:44:01;;;;;;;4.80;2.00;;;;;;;20.04;nan;-24374.44;5017602;28;20214;-72
2022/11/03 06:46:26;;;;;;;6.80;1.50;;;;;;;19.93;nan;-24371.50;5019044;28;20286;-72
2022/11/03 06:48:56;;;;;;;5.38;2.00;;;;;;;19.84;nan;-24369.16;5011515;28;20180;-72
2022/11/03 06:51:25;;;;;;;3.03;1.85;;;;;;;20.04;nan;-24374.56;5012160;28;20170;-72
2022/11/03 06:53:54;;;;;;;5.70;1.90;;;;;;;20.18;nan;-24378.47;5012132;28;20611;-72
2022/11/03 06:56:21;;;;;;;4.40;2.00;;;;;;;20.23;nan;-24379.84;5011151;28;20196;-73
2022/11/03 06:58:48;;;;;;;3.75;1.50;;;;;;;20.27;nan;-24380.97;5011476;28;20176;-72
2022/11/03 07:01:34;;;;;;;4.90;2.03;;;;;;;20.66;nan;-24391.50;5011288;28;20577;-72
2022/11/03 07:04:13;;;;;;;8.32;1.88;;;;;;;20.65;nan;-24391.22;5011147;28;20192;-71
2022/11/03 07:06:39;;;;;;;2.83;2.03;;;;;;;20.53;nan;-24388.03;5010904;28;20572;-72
2022/11/03 07:09:12;;;;;;;3.97;1.83;;;;;;;20.47;nan;-24386.38;5011145;28;20168;-72
2022/11/03 07:11:43;;;;;;;5.65;1.75;;;;;;;20.98;nan;-24400.38;5017726;28;20603;-71
2022/11/03 07:14:15;;;;;;;3.25;2.10;;;;;;;20.62;nan;-24390.41;5031472;28;20194;-71
2022/11/03 07:16:45;;;;;;;3.72;1.70;;;;;;;20.90;nan;-24398.03;5033309;28;20164;-72
2022/11/03 07:19:36;;;;;;;8.50;2.38;;;;;;;21.00;nan;-24400.94;5035452;28;20256;-72
2022/11/03 07:22:09;;;;;;;6.70;2.80;;;;;;;20.76;nan;-24394.28;5034368;28;20258;-72
2022/11/03 07:24:43;;;;;;;9.80;3.53;;;;;;;20.60;nan;-24389.84;5034803;28;20167;-71
2022/11/03 07:27:24;;;;;;;10.57;3.47;;;;;;;20.70;nan;-24392.63;5035291;28;20229;-71
2022/11/03 07:29:51;;;;;;;5.60;3.15;;;;;;;20.65;nan;-24391.22;5033429;28;20180;-72
2022/11/03 07:32:23;;;;;;;8.05;3.15;;;;;;;20.16;nan;-24377.91;5034749;28;20171;-71
2022/11/03 07:34:51;;;;;;;9.18;2.97;;;;;;;20.17;nan;-24378.19;5034880;28;20673;-70
2022/11/03 07:37:24;;;;;;;4.63;2.70;;;;;;;20.11;nan;-24376.50;5034784;28;20321;-70
2022/11/03 07:39:51;;;;;;;4.43;2.42;;;;;;;20.00;nan;-24373.47;5033934;28;20702;-72
2022/11/03 07:42:20;;;;;;;7.20;3.20;;;;;;;20.25;nan;-24380.41;5022189;28;20191;-71
2022/11/03 07:44:46;;;;;;;7.95;2.65;;;;;;;20.06;nan;-24375.00;5028572;28;20172;-71
2022/11/03 07:47:26;;;;;;;5.63;3.55;;;;;;;20.34;nan;-24382.63;5014944;28;20183;-71
2022/11/03 07:49:53;;;;;;;5.55;2.90;;;;;;;20.19;nan;-24378.59;5049008;28;20183;-70
2022/11/03 07:52:21;;;;;;;5.25;3.35;;;;;;;20.34;nan;-24382.63;5034061;28;20567;-73
2022/11/03 07:54:49;;;;;;;7.32;2.72;;;;;;;20.23;nan;-24379.84;5033418;28;20187;-72
2022/11/03 07:57:21;;;;;;;10.68;3.13;;;;;;;20.25;nan;-24380.41;5033790;28;20179;-72
2022/11/03 07:59:51;;;;;;;4.57;2.35;;;;;;;20.36;nan;-24383.31;5032600;28;20163;-71
2022/11/03 08:02:16;;;;;;;3.90;2.63;;;;;;;20.19;nan;-24378.75;5034282;28;20195;-71
2022/11/03 08:04:41;;;;;;;5.25;3.00;;;;;;;20.44;nan;-24385.41;5035027;28;20185;-71
2022/11/03 08:07:07;;;;;;;7.40;3.33;;;;;;;20.34;nan;-24382.63;5034413;28;20172;-70
2022/11/03 08:09:32;;;;;;;7.40;2.80;;;;;;;20.75;nan;-24394.00;5034620;28;20172;-72
2022/11/03 08:11:57;;;;;;;4.88;2.63;;;;;;;20.80;nan;-24395.41;5034745;28;20198;-72
2022/11/03 08:14:23;;;;;;;8.02;3.28;;;;;;;20.49;nan;-24386.78;5034745;28;20209;-72
2022/11/03 08:16:48;;;;;;;13.48;4.35;;;;;;;20.45;nan;-24385.69;5035050;28;20573;-71
2022/11/03 08:19:13;;;;;;;7.57;3.13;;;;;;;20.35;nan;-24382.91;5034710;28;20179;-71
2022/11/03 08:21:39;;;;;;;6.75;2.92;;;;;;;20.06;nan;-24375.00;5034447;28;20690;-72
2022/11/03 08:24:05;;;;;;;6.03;3.10;;;;;;;20.21;nan;-24379.28;5034368;28;20203;-71
2022/11/03 08:26:30;;;;;;;5.18;3.17;;;;;;;20.70;nan;-24392.63;5034360;28;20229;-71
2022/11/03 08:28:56;;;;;;;7.35;4.03;;;;;;;20.65;nan;-24391.22;5034137;28;20168;-72
2022/11/03 08:31:21;;;;;;;5.45;3.15;;;;;;;20.37;nan;-24383.47;5034487;28;20180;-72
2022/11/03 08:33:46;;;;;;;8.02;3.58;;;;;;;20.62;nan;-24390.41;5033207;28;20179;-71
2022/11/03 08:36:12;;;;;;;4.65;3.20;;;;;;;20.72;nan;-24393.31;5034301;28;20222;-71
2022/11/03 08:38:37;;;;;;;7.50;3.67;;;;;;;20.64;nan;-24390.97;5034388;28;20258;-71
2022/11/03 08:41:03;;;;;;;8.20;3.10;;;;;;;20.96;nan;-24399.69;5033792;28;20549;-71
2022/11/03 08:43:29;;;;;;;6.45;3.45;;;;;;;21.01;nan;-24401.09;5033511;28;20206;-71
2022/11/03 08:45:54;;;;;;;7.07;3.58;;;;;;;21.26;nan;-24408.03;5033559;28;20542;-72
2022/11/03 08:48:28;;;;;;;5.80;3.15;;;;;;;20.93;nan;-24398.88;5034072;28;20176;-71
2022/11/03 08:50:54;;;;;;;10.68;3.78;;;;;;;21.05;nan;-24402.34;5033818;28;20212;-72
2022/11/03 08:53:21;;;;;;;4.28;2.80;;;;;;;20.97;nan;-24400.13;5033510;28;20664;-72
2022/11/03 08:55:47;;;;;;;8.43;3.60;;;;;;;20.96;nan;-24399.69;5033457;28;20364;-71
2022/11/03 08:58:12;;;;;;;6.00;3.33;;;;;;;21.03;nan;-24401.78;5033381;28;20608;-71
2022/11/03 09:00:38;;;;;;;6.57;3.50;;;;;;;21.18;nan;-24405.66;5033522;28;20180;-70
2022/11/03 09:03:03;;;;;;;4.35;2.53;;;;;;;20.67;nan;-24391.94;5033901;28;20168;-71
2022/11/03 09:05:28;;;;;;;9.18;3.03;;;;;;;20.59;nan;-24389.56;5033904;28;20175;-71
2022/11/03 09:07:54;;;;;;;7.68;3.38;;;;;;;21.28;nan;-24408.56;5033198;28;20246;-71
2022/11/03 09:10:19;;;;;;;8.30;3.65;;;;;;;21.30;nan;-24409.00;5033461;28;20174;-71
2022/11/03 09:12:45;;;;;;;7.30;3.53;;;;;;;21.38;nan;-24411.22;5033679;28;20181;-72
2022/11/03 09:15:10;;;;;;;10.48;4.00;;;;;;;21.58;nan;-24416.88;5033528;28;20224;-72
2022/11/03 09:17:36;;;;;;;5.75;3.10;;;;;;;22.07;nan;-24430.19;5033849;28;20176;-72
2022/11/03 09:20:02;;;;;;;7.72;3.50;;;;;;;22.05;nan;-24429.50;5033313;28;20179;-72
2022/11/03 09:22:27;;;;;;;10.20;3.58;;;;;;;22.18;nan;-24433.09;5033378;28;20198;-71
2022/11/03 09:24:52;;;;;;;6.18;3.17;;;;;;;22.34;nan;-24437.66;5033168;28;20182;-71
2022/11/03 09:27:18;;;;;;;5.07;3.03;;;;;;;21.43;nan;-24412.72;5033910;28;20237;-72
2022/11/03 09:29:43;;;;;;;5.47;3.70;;;;;;;22.58;nan;-24444.16;5033618;28;20171;-71
2022/11/03 09:32:09;;;;;;;5.45;3.17;;;;;;;22.26;nan;-24435.31;5033251;28;20175;-70
2022/11/03 09:34:35;;;;;;;4.65;3.05;;;;;;;22.82;nan;-24450.81;5033216;28;20214;-71
2022/11/03 09:37:00;;;;;;;7.47;3.70;;;;;;;22.59;nan;-24444.44;5031748;28;20171;-73
2022/11/03 09:39:25;;;;;;;6.53;3.67;;;;;;;22.67;nan;-24446.66;5032621;28;20172;-71
2022/11/03 09:41:52;;;;;;;6.15;3.33;;;;;;;22.94;nan;-24453.97;5033132;28;20619;-72
2022/11/03 09:44:18;;;;;;;9.48;3.88;;;;;;;23.05;nan;-24456.88;5033705;28;20175;-72
2022/11/03 09:46:44;;;;;;;6.72;4.43;;;;;;;22.89;nan;-24452.59;5033037;28;20258;-71
2022/11/03 09:49:14;;;;;;;8.90;3.70;;;;;;;22.67;nan;-24446.50;5032394;28;20262;-73
2022/11/03 09:51:40;;;;;;;12.80;5.40;;;;;;;23.03;nan;-24456.34;5032819;28;20207;-71
2022/11/03 09:54:06;;;;;;;5.70;4.00;;;;;;;23.17;nan;-24460.19;5032715;28;20172;-73
2022/11/03 09:56:35;;;;;;;9.40;4.57;;;;;;;23.14;nan;-24459.38;5032507;28;20213;-73
2022/11/03 09:59:00;;;;;;;8.82;4.10;;;;;;;23.48;nan;-24468.78;5032284;28;20183;-68
2022/11/03 10:01:26;;;;;;;8.23;3.97;;;;;;;23.37;nan;-24465.72;5032479;28;20228;-66
2022/11/03 10:03:55;;;;;;;7.22;3.65;;;;;;;23.37;nan;-24465.59;5032560;28;20167;-66
2022/11/03 10:06:20;;;;;;;7.95;3.97;;;;;;;23.61;nan;-24472.34;5032589;28;20330;-69
2022/11/03 10:08:47;;;;;;;8.10;3.85;;;;;;;23.67;nan;-24474.00;5032431;28;20195;-69
2022/11/03 10:11:13;;;;;;;8.48;3.85;;;;;;;23.55;nan;-24470.69;5032264;28;20536;-68
2022/11/03 10:13:44;;;;;;;5.60;3.70;;;;;;;23.27;nan;-24462.97;5032047;28;20608;-66
2022/11/03 10:16:14;;;;;;;7.25;4.32;;;;;;;23.14;nan;-24459.50;5032515;28;20207;-68
2022/11/03 10:18:39;;;;;;;5.70;3.75;;;;;;;23.33;nan;-24464.63;5031977;28;20168;-65
2022/11/03 10:21:13;;;;;;;7.07;4.18;;;;;;;22.82;nan;-24450.66;5032915;28;20171;-68
2022/11/03 10:23:38;;;;;;;8.60;3.40;;;;;;;22.65;nan;-24446.09;5032732;28;20205;-68
2022/11/03 10:26:15;;;;;;;4.30;3.28;;;;;;;22.30;nan;-24436.41;5032574;28;20227;-67
2022/11/03 10:28:57;;;;;;;5.93;3.08;;;;;;;22.50;nan;-24441.81;5032894;28;20559;-67
2022/11/03 10:31:29;;;;;;;10.68;3.05;;;;;;;22.87;nan;-24452.19;5032144;28;20639;-66
2022/11/03 10:33:55;;;;;;;6.07;3.45;;;;;;;22.70;nan;-24447.34;5032147;28;20644;-67
2022/11/03 10:36:33;;;;;;;6.28;3.67;;;;;;;22.82;nan;-24450.81;5019727;28;20270;-67
2022/11/03 10:39:19;;;;;;;6.30;3.40;;;;;;;22.79;nan;-24449.97;5012779;28;20179;-66
2022/11/03 10:42:03;;;;;;;8.27;4.13;;;;;;;22.57;nan;-24443.88;5016501;28;20216;-67
2022/11/03 10:44:29;;;;;;;8.70;3.53;;;;;;;22.73;nan;-24448.31;5016133;28;20183;-68
2022/11/03 10:47:02;;;;;;;11.25;3.92;;;;;;;22.80;nan;-24450.25;5031270;28;20183;-66
2022/11/03 10:49:30;;;;;;;7.00;4.00;;;;;;;23.13;nan;-24459.09;5021007;28;20256;-67
2022/11/03 10:52:12;;;;;;;8.52;3.53;;;;;;;23.26;nan;-24462.81;5011184;28;20182;-70
2022/11/03 10:54:37;;;;;;;5.07;3.42;;;;;;;23.33;nan;-24464.63;5011458;28;20283;-67
2022/11/03 10:57:03;;;;;;;7.32;4.22;;;;;;;23.29;nan;-24463.66;5011628;28;20263;-69
2022/11/03 10:59:35;;;;;;;11.05;4.63;;;;;;;23.05;nan;-24457.03;5012294;28;20310;-69
2022/11/03 11:02:01;;;;;;;8.45;4.70;;;;;;;23.21;nan;-24461.31;5011125;28;20168;-68
2022/11/03 11:04:27;;;;;;;8.90;4.20;;;;;;;22.40;nan;-24439.19;5011652;28;20182;-67
2022/11/03 11:06:52;;;;;;;5.57;3.95;;;;;;;23.42;nan;-24467.09;5011762;28;20230;-65
2022/11/03 11:09:26;;;;;;;6.82;3.40;;;;;;;23.59;nan;-24471.81;5011228;28;20647;-68
2022/11/03 11:12:01;;;;;;;6.90;3.60;;;;;;;23.70;nan;-24474.69;5011317;28;20595;-67
2022/11/03 11:14:29;;;;;;;5.15;3.10;;;;;;;23.94;nan;-24481.31;5011702;28;20275;-66
2022/11/03 11:16:58;;;;;;;7.38;3.88;;;;;;;24.03;nan;-24483.66;5011830;28;20184;-69
2022/11/03 11:19:26;;;;;;;7.15;3.58;;;;;;;23.98;nan;-24482.44;5011084;28;20176;-68
2022/11/03 11:21:52;;;;;;;5.82;3.38;;;;;;;24.22;nan;-24488.91;5011049;28;20176;-68
2022/11/03 11:24:42;;;;;;;7.20;3.75;;;;;;;24.45;nan;-24495.25;5010966;28;20234;-69
2022/11/03 11:27:35;;;;;;;7.30;3.72;;;;;;;24.50;nan;-24496.63;5011030;28;20216;-69
2022/11/03 11:30:25;;;;;;;6.57;3.50;;;;;;;24.50;nan;-24496.63;5010760;28;20175;-66
2022/11/03 11:33:13;;;;;;;6.03;3.70;;;;;;;24.14;nan;-24486.69;4989908;28;20204;-65
2022/11/03 11:35:38;;;;;;;7.28;3.15;;;;;;;24.49;nan;-24496.34;5010849;28;20184;-65
2022/11/03 11:38:41;;;;;;;6.18;3.85;;;;;;;24.22;nan;-24488.91;5010766;28;20607;-67
2022/11/03 11:41:06;;;;;;;8.82;4.00;;;;;;;23.66;nan;-24473.75;5010202;28;20627;-67
2022/11/03 11:43:32;;;;;;;7.72;4.18;;;;;;;23.47;nan;-24468.50;5009761;28;20246;-68
2022/11/03 11:46:22;;;;;;;11.63;4.45;;;;;;;23.70;nan;-24474.84;5010226;28;20259;-64
2022/11/03 11:49:02;;;;;;;9.55;4.43;;;;;;;23.77;nan;-24476.78;5010564;28;20263;-67
2022/11/03 11:51:32;;;;;;;6.35;4.13;;;;;;;23.62;nan;-24472.50;5009387;28;20175;-66
2022/11/03 11:53:58;;;;;;;12.30;4.43;;;;;;;23.46;nan;-24468.06;5022455;28;20243;-66
2022/11/03 11:56:23;;;;;;;8.90;4.53;;;;;;;23.31;nan;-24464.19;5016432;28;20227;-68
2022/11/03 11:58:53;;;;;;;6.88;4.13;;;;;;;23.69;nan;-24474.56;5030649;28;20167;-68
2022/11/03 12:01:27;;;;;;;6.60;3.60;;;;;;;23.89;nan;-24479.81;5019992;28;20184;-69
2022/11/03 12:03:58;;;;;;;8.60;3.88;;;;;;;23.82;nan;-24477.88;5014980;28;20647;-67
2022/11/03 12:06:33;;;;;;;6.15;3.67;;;;;;;23.79;nan;-24477.19;5014888;28;20168;-65
2022/11/03 12:09:15;;;;;;;8.43;3.70;;;;;;;23.84;nan;-24478.56;5014408;28;20194;-65
2022/11/03 12:11:42;;;;;;;7.57;4.07;;;;;;;23.71;nan;-24474.97;5014780;28;20199;-65
2022/11/03 12:14:35;;;;;;;5.55;3.58;;;;;;;23.97;nan;-24482.00;5014641;28;20554;-67